Time;durP1;ratioP1;P1;durP2;ratioP2;P2;SDS_P1;SDS_P2;PMS_P1;PMS_P2;Temp;Humidity;BMP_temperature;BMP_pressure;BME280_temperature;BME280_humidity;BME280_pressure;Samples;Min_cycle;Max_cycle;Signal;HPM_P1;HPM_P2
2022/04/30 00:00:17;;;;;;;14.07;11.98;;;10.50;99.90;;;;;;2485072;23;20015;-73
2022/04/30 00:01:19;;;;;;;14.43;11.60;;;10.50;99.90;;;;;;2484593;23;20012;-74
2022/04/30 00:02:20;;;;;;;14.10;11.52;;;10.50;99.90;;;;;;2484767;23;20011;-75
2022/04/30 00:03:24;;;;;;;18.85;12.27;;;10.50;99.90;;;;;;2472888;24;20099;-74
2022/04/30 00:04:25;;;;;;;13.70;11.02;;;10.50;99.90;;;;;;2473503;23;20008;-73
2022/04/30 00:05:31;;;;;;;15.15;11.20;;;10.50;99.90;;;;;;2485336;23;20338;-74
2022/04/30 00:06:31;;;;;;;15.68;11.63;;;10.50;99.90;;;;;;2485107;23;20337;-74
2022/04/30 00:07:32;;;;;;;12.32;10.75;;;10.50;99.90;;;;;;2485231;23;20079;-74
2022/04/30 00:08:32;;;;;;;14.07;10.82;;;10.50;99.90;;;;;;2485249;23;20004;-74
2022/04/30 00:09:34;;;;;;;15.00;11.40;;;10.50;99.90;;;;;;2485143;23;20004;-73
2022/04/30 00:10:38;;;;;;;14.07;11.23;;;10.50;99.90;;;;;;2484806;23;20007;-72
2022/04/30 00:11:39;;;;;;;15.00;11.90;;;10.50;99.90;;;;;;2484745;23;20008;-73
2022/04/30 00:12:39;;;;;;;14.18;10.90;;;10.50;99.90;;;;;;2485166;23;20012;-74
2022/04/30 00:13:40;;;;;;;14.50;11.65;;;10.50;99.90;;;;;;2485344;23;20019;-73
2022/04/30 00:14:40;;;;;;;15.68;11.77;;;10.50;99.90;;;;;;2485499;23;20003;-74
2022/04/30 00:15:41;;;;;;;15.55;11.63;;;10.40;99.90;;;;;;2472940;24;20004;-75
2022/04/30 00:16:43;;;;;;;14.85;12.35;;;10.50;99.90;;;;;;2472647;23;20004;-73
2022/04/30 00:17:43;;;;;;;16.08;11.93;;;10.50;99.90;;;;;;2484791;23;20038;-73
2022/04/30 00:18:45;;;;;;;16.25;11.90;;;10.50;99.90;;;;;;2485185;23;20047;-72
2022/04/30 00:19:46;;;;;;;15.48;11.30;;;10.40;99.90;;;;;;2485429;23;20063;-72
2022/04/30 00:20:47;;;;;;;14.85;11.02;;;10.40;99.90;;;;;;2471819;24;20008;-75
2022/04/30 00:21:51;;;;;;;15.05;11.52;;;10.40;99.90;;;;;;2472097;23;20015;-72
2022/04/30 00:22:52;;;;;;;13.95;11.20;;;10.40;99.90;;;;;;2484270;23;20098;-73
2022/04/30 00:23:53;;;;;;;12.65;10.43;;;10.40;99.90;;;;;;2484194;23;20007;-75
2022/04/30 00:24:53;;;;;;;14.07;11.20;;;10.40;99.90;;;;;;2484375;23;20004;-76
2022/04/30 00:25:55;;;;;;;14.15;11.40;;;10.40;99.90;;;;;;2484262;23;20008;-73
2022/04/30 00:26:58;;;;;;;12.77;10.70;;;10.40;99.90;;;;;;2483801;23;20008;-74
2022/04/30 00:27:59;;;;;;;14.32;11.27;;;10.40;99.90;;;;;;2484328;23;20004;-72
2022/04/30 00:29:00;;;;;;;16.13;11.52;;;10.40;99.90;;;;;;2483548;23;20019;-73
2022/04/30 00:30:01;;;;;;;14.38;11.70;;;10.40;99.90;;;;;;2471692;24;20465;-73
2022/04/30 00:31:02;;;;;;;14.02;11.32;;;10.40;99.90;;;;;;2471961;23;20010;-73
2022/04/30 00:32:04;;;;;;;13.15;10.95;;;10.40;99.90;;;;;;2484047;23;20333;-73
2022/04/30 00:33:09;;;;;;;13.93;10.63;;;10.40;99.90;;;;;;2483326;23;20011;-73
2022/04/30 00:34:10;;;;;;;16.13;11.35;;;10.40;99.90;;;;;;2471742;24;20383;-74
2022/04/30 00:35:11;;;;;;;15.15;11.75;;;10.40;99.90;;;;;;2471688;23;20472;-74
2022/04/30 00:36:11;;;;;;;16.15;11.95;;;10.30;99.90;;;;;;2483925;23;20059;-74
2022/04/30 00:37:12;;;;;;;13.43;10.73;;;10.30;99.90;;;;;;2483730;23;20388;-73
2022/04/30 00:38:15;;;;;;;14.98;10.93;;;10.30;99.90;;;;;;2483528;23;20042;-73
2022/04/30 00:39:16;;;;;;;13.20;11.18;;;10.30;99.90;;;;;;2483874;23;20022;-74
2022/04/30 00:40:17;;;;;;;14.93;11.50;;;10.30;99.90;;;;;;2483737;23;20313;-74
2022/04/30 00:41:18;;;;;;;14.35;11.48;;;10.30;99.90;;;;;;2471529;24;20111;-74
2022/04/30 00:42:19;;;;;;;13.27;10.95;;;10.30;99.90;;;;;;2471622;23;20023;-74
2022/04/30 00:43:20;;;;;;;13.45;10.93;;;10.30;99.90;;;;;;2471412;24;20020;-73
2022/04/30 00:44:21;;;;;;;13.68;11.23;;;10.30;99.90;;;;;;2471460;24;20354;-74
2022/04/30 00:45:21;;;;;;;14.48;11.43;;;10.30;99.90;;;;;;2483900;23;20063;-74
2022/04/30 00:46:23;;;;;;;15.10;11.15;;;10.30;99.90;;;;;;2483597;23;20011;-74
2022/04/30 00:47:26;;;;;;;14.23;11.05;;;10.20;99.90;;;;;;2483447;23;20023;-73
2022/04/30 00:48:28;;;;;;;13.63;11.02;;;10.20;99.90;;;;;;2483851;23;20111;-74
2022/04/30 00:49:29;;;;;;;14.50;12.05;;;10.20;99.90;;;;;;2483809;23;20067;-74
2022/04/30 00:50:33;;;;;;;14.20;11.30;;;10.20;99.90;;;;;;2483749;23;20015;-73
2022/04/30 00:51:38;;;;;;;13.73;11.00;;;10.20;99.90;;;;;;2484084;23;20003;-74
2022/04/30 00:52:38;;;;;;;14.20;11.02;;;10.20;99.90;;;;;;2484000;23;20023;-74
2022/04/30 00:53:43;;;;;;;14.82;11.60;;;10.20;99.90;;;;;;2471441;24;20401;-74
2022/04/30 00:54:49;;;;;;;14.55;11.18;;;10.20;99.90;;;;;;2472263;23;20361;-74
2022/04/30 00:55:51;;;;;;;13.25;10.80;;;10.10;99.90;;;;;;2483841;23;20016;-75
2022/04/30 00:56:55;;;;;;;15.77;11.68;;;10.10;99.90;;;;;;2471687;24;20099;-75
2022/04/30 00:58:01;;;;;;;14.20;11.15;;;10.10;99.90;;;;;;2472562;23;20433;-75
2022/04/30 00:59:06;;;;;;;13.95;11.38;;;10.10;99.90;;;;;;2471864;24;20080;-73
2022/04/30 01:00:07;;;;;;;14.50;11.73;;;10.10;99.90;;;;;;2472306;23;20012;-74
2022/04/30 01:01:19;;;;;;;14.13;12.00;;;10.10;99.90;;;;;;2471939;24;20009;-73
2022/04/30 01:02:54;;;;;;;17.00;12.50;;;10.10;99.90;;;;;;2479094;23;20083;-74
2022/04/30 01:04:19;;;;;;;14.45;11.80;;;10.00;99.90;;;;;;2483826;23;20345;-74
2022/04/30 01:05:19;;;;;;;13.32;11.23;;;10.00;99.90;;;;;;2471835;24;20715;-75
2022/04/30 01:06:43;;;;;;;14.93;11.45;;;10.00;99.90;;;;;;2471363;24;20065;-73
2022/04/30 01:07:44;;;;;;;14.57;12.02;;;10.00;99.90;;;;;;2485709;23;20007;-73
2022/04/30 01:08:45;;;;;;;16.65;12.13;;;10.00;99.90;;;;;;2486164;23;20016;-73
2022/04/30 01:09:47;;;;;;;15.52;12.00;;;9.90;99.90;;;;;;2486569;23;20016;-73
2022/04/30 01:10:48;;;;;;;14.32;11.60;;;9.90;99.90;;;;;;2484942;23;20011;-73
2022/04/30 01:11:59;;;;;;;15.77;11.88;;;9.90;99.90;;;;;;2471219;24;20083;-73
2022/04/30 01:13:00;;;;;;;15.30;11.63;;;9.90;99.90;;;;;;2473422;23;20016;-73
2022/04/30 01:14:00;;;;;;;14.25;11.20;;;9.90;99.90;;;;;;2483357;23;20558;-72
2022/04/30 01:15:04;;;;;;;14.27;11.55;;;9.90;99.90;;;;;;2483972;23;20014;-74
2022/04/30 01:16:07;;;;;;;14.23;11.07;;;9.90;99.90;;;;;;2483930;23;20531;-73
2022/04/30 01:17:10;;;;;;;14.40;11.63;;;9.90;99.90;;;;;;2483713;23;20012;-73
2022/04/30 01:18:10;;;;;;;15.23;11.50;;;9.90;99.90;;;;;;2483954;23;20012;-74
2022/04/30 01:19:18;;;;;;;16.08;11.48;;;9.90;99.90;;;;;;2483794;23;20008;-73
2022/04/30 01:20:19;;;;;;;14.95;11.73;;;9.90;99.90;;;;;;2483690;23;20022;-73
2022/04/30 01:21:22;;;;;;;15.10;11.57;;;9.80;99.90;;;;;;2483141;23;20098;-73
2022/04/30 01:22:35;;;;;;;14.73;11.68;;;9.90;99.90;;;;;;2483248;23;20019;-74
2022/04/30 01:23:36;;;;;;;16.27;11.60;;;9.90;99.90;;;;;;2483918;23;20102;-74
2022/04/30 01:24:38;;;;;;;15.27;11.90;;;9.80;99.90;;;;;;2483723;23;20011;-73
2022/04/30 01:25:42;;;;;;;14.55;11.55;;;9.80;99.90;;;;;;2483871;23;20104;-74
2022/04/30 01:26:43;;;;;;;14.70;11.57;;;9.80;99.90;;;;;;2483832;23;20023;-74
2022/04/30 01:27:43;;;;;;;15.68;11.43;;;9.80;99.90;;;;;;2483774;23;20008;-74
2022/04/30 01:28:45;;;;;;;13.95;11.50;;;9.80;99.90;;;;;;2484288;23;20011;-74
2022/04/30 01:29:46;;;;;;;15.10;11.80;;;9.80;99.90;;;;;;2471934;24;20128;-74
2022/04/30 01:30:47;;;;;;;14.20;11.05;;;9.80;99.90;;;;;;2471706;24;20016;-74
2022/04/30 01:37:25;;;;;;;18.00;12.07;;;9.70;99.90;;;;;;2482844;23;20016;-72
2022/04/30 01:38:27;;;;;;;17.30;12.23;;;9.60;99.90;;;;;;2483020;23;20058;-73
2022/04/30 01:39:28;;;;;;;14.90;11.60;;;9.60;99.90;;;;;;2483090;23;20004;-73
2022/04/30 01:40:29;;;;;;;16.55;11.98;;;9.60;99.90;;;;;;2483629;23;20034;-73
2022/04/30 01:41:30;;;;;;;15.95;11.57;;;9.60;99.90;;;;;;2471653;24;20024;-73
2022/04/30 01:42:35;;;;;;;14.15;11.90;;;9.60;99.90;;;;;;2471467;24;20489;-73
2022/04/30 01:43:36;;;;;;;13.77;11.35;;;9.60;99.90;;;;;;2483377;23;20011;-73
2022/04/30 01:44:39;;;;;;;15.07;11.60;;;9.60;99.90;;;;;;2483863;23;20426;-72
2022/04/30 01:45:40;;;;;;;14.20;11.55;;;9.60;99.90;;;;;;2484011;23;20007;-74
2022/04/30 01:46:41;;;;;;;16.42;11.63;;;9.60;99.90;;;;;;2483782;23;20027;-72
2022/04/30 01:47:47;;;;;;;13.77;10.95;;;9.50;99.90;;;;;;2483427;23;20122;-74
2022/04/30 01:48:48;;;;;;;13.55;11.65;;;9.50;99.90;;;;;;2471394;24;20016;-74
2022/04/30 01:49:49;;;;;;;13.45;11.02;;;9.50;99.90;;;;;;2471335;23;20044;-73
2022/04/30 01:50:50;;;;;;;15.25;11.90;;;9.50;99.90;;;;;;2483692;23;20007;-74
2022/04/30 01:51:51;;;;;;;15.98;11.27;;;9.50;99.90;;;;;;2483747;23;20118;-74
2022/04/30 01:52:51;;;;;;;14.68;11.70;;;9.50;99.90;;;;;;2484475;23;19999;-74
2022/04/30 01:53:52;;;;;;;17.17;12.45;;;9.50;99.90;;;;;;2472135;24;20418;-74
2022/04/30 01:54:54;;;;;;;16.05;12.70;;;9.50;99.90;;;;;;2472519;23;20004;-74
2022/04/30 01:55:55;;;;;;;15.73;11.73;;;9.50;99.90;;;;;;2472288;24;20510;-74
2022/04/30 01:57:05;;;;;;;17.17;11.65;;;9.40;99.90;;;;;;2473486;23;20087;-74
2022/04/30 01:58:06;;;;;;;15.40;11.68;;;9.50;99.90;;;;;;2483903;23;20011;-74
2022/04/30 01:59:06;;;;;;;15.20;11.88;;;9.50;99.90;;;;;;2484517;23;20019;-72
2022/04/30 02:00:09;;;;;;;14.88;11.30;;;9.40;99.90;;;;;;2471941;23;20698;-74
2022/04/30 02:01:15;;;;;;;14.27;11.00;;;9.40;99.90;;;;;;2462066;24;20019;-74
2022/04/30 02:02:22;;;;;;;16.17;11.90;;;9.40;99.90;;;;;;2472797;23;20012;-73
2022/04/30 02:03:23;;;;;;;15.80;11.48;;;9.40;99.90;;;;;;2484474;23;20043;-74
2022/04/30 02:04:24;;;;;;;16.00;11.60;;;9.40;99.90;;;;;;2484425;23;20461;-74
2022/04/30 02:05:26;;;;;;;14.55;11.65;;;9.40;99.90;;;;;;2471720;24;20036;-74
2022/04/30 02:06:26;;;;;;;14.00;11.35;;;9.30;99.90;;;;;;2483728;23;20431;-74
2022/04/30 02:07:28;;;;;;;13.77;10.85;;;9.30;99.90;;;;;;2483510;23;20015;-75
2022/04/30 02:08:32;;;;;;;14.15;11.32;;;9.30;99.90;;;;;;2472294;23;20019;-75
2022/04/30 02:09:33;;;;;;;14.80;11.32;;;9.30;99.90;;;;;;2484389;23;20357;-75
2022/04/30 02:10:36;;;;;;;14.00;11.07;;;9.30;99.90;;;;;;2483530;23;20020;-75
2022/04/30 02:11:38;;;;;;;14.23;11.20;;;9.30;99.90;;;;;;2483721;23;20004;-75
2022/04/30 02:12:39;;;;;;;13.77;11.00;;;9.30;99.90;;;;;;2484441;23;20484;-75
2022/04/30 02:13:40;;;;;;;14.38;11.52;;;9.30;99.90;;;;;;2484548;23;20042;-75
2022/04/30 02:14:46;;;;;;;15.45;11.43;;;9.30;99.90;;;;;;2484273;23;20478;-75
2022/04/30 02:15:48;;;;;;;13.93;11.02;;;9.20;99.90;;;;;;2484539;23;20050;-75
2022/04/30 02:16:48;;;;;;;13.25;11.00;;;9.20;99.90;;;;;;2483427;23;20039;-75
2022/04/30 02:17:50;;;;;;;15.52;11.60;;;9.20;99.90;;;;;;2471800;24;20008;-75
2022/04/30 02:18:51;;;;;;;14.43;11.05;;;9.20;99.90;;;;;;2472299;23;20012;-74
2022/04/30 02:21:17;;;;;;;18.27;11.30;;;9.20;99.90;;;;;;2484862;23;20004;-74
2022/04/30 02:22:18;;;;;;;15.77;11.50;;;9.20;99.90;;;;;;2484754;23;20461;-73
2022/04/30 02:23:22;;;;;;;14.70;11.15;;;9.20;99.90;;;;;;2484494;23;20004;-72
2022/04/30 02:24:24;;;;;;;13.98;10.80;;;9.20;99.90;;;;;;2484359;23;20051;-73
2022/04/30 02:25:26;;;;;;;14.32;10.88;;;9.20;99.90;;;;;;2484887;23;20008;-75
2022/04/30 02:26:27;;;;;;;14.82;11.40;;;9.20;99.90;;;;;;2484388;23;20445;-75
2022/04/30 02:27:29;;;;;;;14.10;11.23;;;9.20;99.90;;;;;;2484474;23;20568;-75
2022/04/30 02:28:30;;;;;;;15.35;11.10;;;9.20;99.90;;;;;;2484296;23;20004;-75
2022/04/30 02:29:30;;;;;;;14.45;10.63;;;9.20;99.90;;;;;;2484269;23;20007;-75
2022/04/30 02:30:35;;;;;;;15.07;11.20;;;9.20;99.90;;;;;;2484430;23;20011;-75
2022/04/30 02:31:36;;;;;;;13.50;10.77;;;9.20;99.90;;;;;;2471957;24;20008;-75
2022/04/30 02:33:01;;;;;;;14.43;11.43;;;9.20;99.90;;;;;;2472325;23;20033;-73
2022/04/30 02:34:02;;;;;;;15.25;11.20;;;9.20;99.90;;;;;;2484971;23;20062;-73
2022/04/30 02:35:03;;;;;;;12.48;10.68;;;9.10;99.90;;;;;;2472319;24;20052;-73
2022/04/30 02:36:04;;;;;;;13.57;10.93;;;9.20;99.90;;;;;;2472142;24;20037;-75
2022/04/30 02:37:04;;;;;;;13.70;11.07;;;9.20;99.90;;;;;;2471808;24;20040;-73
2022/04/30 02:38:08;;;;;;;13.68;10.88;;;9.10;99.90;;;;;;2471926;24;20000;-74
2022/04/30 02:39:09;;;;;;;13.80;10.82;;;9.10;99.90;;;;;;2471964;24;20023;-72
2022/04/30 02:40:16;;;;;;;13.23;10.82;;;9.10;99.90;;;;;;2471886;24;20111;-75
2022/04/30 02:41:16;;;;;;;14.48;10.90;;;9.10;99.90;;;;;;2483735;23;20060;-73
2022/04/30 02:42:17;;;;;;;13.73;10.80;;;9.10;99.90;;;;;;2483550;23;20429;-74
2022/04/30 02:43:19;;;;;;;13.18;10.70;;;9.10;99.90;;;;;;2483360;23;20031;-74
2022/04/30 02:44:20;;;;;;;15.38;11.20;;;9.10;99.90;;;;;;2484589;23;20135;-74
2022/04/30 02:45:22;;;;;;;13.90;11.23;;;9.10;99.90;;;;;;2484386;23;20389;-74
2022/04/30 02:46:23;;;;;;;15.50;11.50;;;9.10;99.90;;;;;;2483456;23;20520;-74
2022/04/30 02:47:24;;;;;;;14.68;11.65;;;9.10;99.90;;;;;;2483303;23;20015;-74
2022/04/30 02:48:25;;;;;;;14.40;11.75;;;9.10;99.90;;;;;;2484164;23;20008;-73
2022/04/30 02:49:25;;;;;;;17.90;12.52;;;9.10;99.90;;;;;;2484258;23;20120;-73
2022/04/30 02:50:26;;;;;;;16.23;12.27;;;9.10;99.90;;;;;;2483972;23;20007;-74
2022/04/30 02:51:27;;;;;;;15.77;12.48;;;9.10;99.90;;;;;;2484411;23;20007;-72
2022/04/30 02:52:28;;;;;;;16.55;12.25;;;9.10;99.90;;;;;;2483994;23;20055;-72
2022/04/30 02:53:28;;;;;;;16.17;12.10;;;9.00;99.90;;;;;;2484364;23;20003;-72
2022/04/30 02:54:30;;;;;;;17.40;13.13;;;9.00;99.90;;;;;;2484403;23;20066;-73
2022/04/30 02:55:31;;;;;;;17.77;12.88;;;9.00;99.90;;;;;;2484407;23;20429;-72
2022/04/30 02:56:32;;;;;;;16.08;12.90;;;9.00;99.90;;;;;;2484014;23;20023;-73
2022/04/30 03:00:25;;;;;;;16.75;12.52;;;8.90;99.90;;;;;;2483176;23;20020;-74
2022/04/30 03:01:45;;;;;;;17.17;12.98;;;8.90;99.90;;;;;;2483352;23;20648;-72
2022/04/30 03:03:09;;;;;;;15.90;12.82;;;8.90;99.90;;;;;;2484085;23;20015;-72
2022/04/30 03:04:09;;;;;;;19.75;12.73;;;8.90;99.90;;;;;;2483613;23;20110;-72
2022/04/30 03:05:10;;;;;;;15.45;12.23;;;8.90;99.90;;;;;;2483263;23;20012;-72
2022/04/30 03:06:12;;;;;;;14.73;12.48;;;8.90;99.90;;;;;;2483308;23;20103;-72
2022/04/30 03:07:13;;;;;;;17.02;13.00;;;8.90;99.90;;;;;;2483817;23;20030;-72
2022/04/30 03:08:16;;;;;;;16.17;12.85;;;8.90;99.90;;;;;;2484413;23;20010;-72
2022/04/30 03:09:18;;;;;;;18.75;13.35;;;8.90;99.90;;;;;;2484252;23;20019;-72
2022/04/30 03:10:22;;;;;;;15.82;12.73;;;8.90;99.90;;;;;;2483930;23;20468;-72
2022/04/30 03:11:22;;;;;;;15.20;12.73;;;8.90;99.90;;;;;;2484461;23;20004;-73
2022/04/30 03:12:23;;;;;;;14.88;12.82;;;8.90;99.90;;;;;;2484335;23;20460;-72
2022/04/30 03:13:25;;;;;;;15.90;12.88;;;8.90;99.90;;;;;;2484509;23;20024;-73
2022/04/30 03:14:25;;;;;;;17.55;13.50;;;8.90;99.90;;;;;;2484367;23;20008;-74
2022/04/30 03:15:29;;;;;;;16.02;13.10;;;8.90;99.90;;;;;;2484226;23;20000;-75
2022/04/30 03:21:49;;;;;;;18.42;13.15;;;8.80;99.90;;;;;;2484292;23;20350;-74
2022/04/30 03:22:49;;;;;;;17.50;13.40;;;8.80;99.90;;;;;;2484269;23;20018;-75
2022/04/30 03:23:51;;;;;;;16.65;13.05;;;8.80;99.90;;;;;;2484183;23;20033;-70
2022/04/30 03:24:52;;;;;;;16.55;13.52;;;8.80;99.90;;;;;;2484457;23;20042;-71
2022/04/30 03:25:52;;;;;;;17.38;13.07;;;8.80;99.90;;;;;;2484498;23;20015;-73
2022/04/30 03:26:53;;;;;;;16.88;12.88;;;8.80;99.90;;;;;;2483875;23;20393;-73
2022/04/30 03:27:53;;;;;;;16.55;12.85;;;8.80;99.90;;;;;;2484311;23;20011;-70
2022/04/30 03:28:55;;;;;;;18.15;13.13;;;8.80;99.90;;;;;;2484527;23;20031;-72
2022/04/30 03:29:55;;;;;;;17.15;13.00;;;8.80;99.90;;;;;;2483415;23;20011;-70
2022/04/30 03:30:56;;;;;;;15.65;12.63;;;8.80;99.90;;;;;;2483808;23;20446;-71
2022/04/30 03:31:57;;;;;;;17.40;13.20;;;8.80;99.90;;;;;;2484759;23;20018;-72
2022/04/30 03:32:57;;;;;;;15.43;12.57;;;8.70;99.90;;;;;;2474607;24;20008;-71
2022/04/30 03:33:58;;;;;;;16.95;13.25;;;8.70;99.90;;;;;;2472276;24;20075;-73
2022/04/30 03:34:58;;;;;;;17.20;13.23;;;8.70;99.90;;;;;;2484654;23;20038;-71
2022/04/30 03:36:00;;;;;;;17.52;13.50;;;8.70;99.90;;;;;;2484552;23;20007;-72
2022/04/30 03:37:00;;;;;;;19.80;13.73;;;8.70;99.90;;;;;;2484270;23;20014;-71
2022/04/30 03:38:01;;;;;;;17.25;13.02;;;8.70;99.90;;;;;;2484282;23;20011;-71
2022/04/30 03:39:03;;;;;;;16.75;12.82;;;8.70;99.90;;;;;;2484313;23;20088;-72
2022/04/30 03:40:04;;;;;;;18.80;13.23;;;8.60;99.90;;;;;;2484741;23;20004;-71
2022/04/30 03:41:06;;;;;;;16.75;13.00;;;8.60;99.90;;;;;;2484500;23;20060;-71
2022/04/30 03:42:07;;;;;;;17.48;13.20;;;8.60;99.90;;;;;;2484916;23;20490;-72
2022/04/30 03:43:08;;;;;;;17.17;13.00;;;8.60;99.90;;;;;;2484667;23;20004;-74
2022/04/30 03:44:08;;;;;;;16.38;12.95;;;8.60;99.90;;;;;;2484593;23;20038;-72
2022/04/30 03:45:09;;;;;;;17.65;13.65;;;8.60;99.90;;;;;;2483851;23;20010;-72
2022/04/30 03:46:10;;;;;;;16.27;13.27;;;8.50;99.90;;;;;;2483441;23;20019;-71
2022/04/30 03:47:11;;;;;;;17.45;13.15;;;8.50;99.90;;;;;;2484073;23;20501;-73
2022/04/30 03:48:12;;;;;;;18.20;13.35;;;8.50;99.90;;;;;;2484741;23;20072;-70
2022/04/30 03:49:13;;;;;;;16.17;12.80;;;8.50;99.90;;;;;;2472142;24;20119;-72
2022/04/30 03:50:14;;;;;;;18.02;12.93;;;8.50;99.90;;;;;;2471779;24;20008;-71
2022/04/30 03:51:16;;;;;;;16.95;13.88;;;8.50;99.90;;;;;;2484849;23;20008;-73
2022/04/30 03:52:16;;;;;;;17.17;13.45;;;8.50;99.90;;;;;;2485162;23;20011;-73
2022/04/30 03:53:17;;;;;;;17.25;13.68;;;8.50;99.90;;;;;;2485042;23;20026;-73
2022/04/30 03:54:17;;;;;;;17.45;13.02;;;8.40;99.90;;;;;;2485118;23;20016;-73
2022/04/30 03:55:18;;;;;;;15.80;13.27;;;8.40;99.90;;;;;;2484845;23;20026;-73
2022/04/30 03:56:22;;;;;;;16.83;13.15;;;8.40;99.90;;;;;;2484753;23;20068;-70
2022/04/30 03:57:24;;;;;;;15.32;13.02;;;8.40;99.90;;;;;;2484690;23;20346;-74
2022/04/30 03:58:25;;;;;;;16.77;13.23;;;8.50;99.90;;;;;;2484794;23;20314;-74
2022/04/30 03:59:26;;;;;;;16.55;12.85;;;8.50;99.90;;;;;;2484931;23;20034;-71
2022/04/30 04:00:27;;;;;;;17.80;13.20;;;8.50;99.90;;;;;;2473176;24;20566;-73
2022/04/30 04:01:27;;;;;;;16.65;12.85;;;8.50;99.90;;;;;;2473657;23;20005;-73
2022/04/30 04:02:28;;;;;;;16.00;12.77;;;8.50;99.90;;;;;;2485961;23;20008;-75
2022/04/30 04:03:29;;;;;;;17.90;12.88;;;8.50;99.90;;;;;;2485768;23;20004;-75
2022/04/30 04:04:30;;;;;;;15.63;13.02;;;8.50;99.90;;;;;;2473576;24;20008;-74
2022/04/30 04:05:31;;;;;;;18.02;13.50;;;8.50;99.90;;;;;;2473398;23;20011;-73
2022/04/30 04:06:32;;;;;;;17.90;13.35;;;8.50;99.90;;;;;;2486465;23;19996;-74
2022/04/30 04:07:33;;;;;;;16.75;12.73;;;8.50;99.90;;;;;;2473860;24;20004;-70
2022/04/30 04:08:35;;;;;;;16.23;12.80;;;8.50;99.90;;;;;;2473148;24;20109;-73
2022/04/30 04:09:36;;;;;;;15.27;12.70;;;8.50;99.90;;;;;;2485102;23;19999;-71
2022/04/30 04:10:37;;;;;;;15.52;12.85;;;8.50;99.90;;;;;;2461149;24;20012;-71
2022/04/30 04:11:38;;;;;;;16.85;12.70;;;8.50;99.90;;;;;;2460378;23;20023;-73
2022/04/30 04:12:40;;;;;;;16.40;12.57;;;8.50;99.90;;;;;;2483251;23;20031;-73
2022/04/30 04:17:38;;;;;;;15.75;12.38;;;8.60;99.90;;;;;;2483851;23;20334;-73
2022/04/30 04:18:39;;;;;;;15.98;12.75;;;8.60;99.90;;;;;;2484081;23;20007;-70
2022/04/30 04:19:40;;;;;;;17.25;13.32;;;8.60;99.90;;;;;;2471650;24;20007;-69
2022/04/30 04:20:41;;;;;;;20.10;13.68;;;8.60;99.90;;;;;;2471775;23;20117;-70
2022/04/30 04:21:42;;;;;;;18.05;13.35;;;8.60;99.90;;;;;;2483900;23;20015;-69
2022/04/30 04:22:42;;;;;;;17.40;13.32;;;8.60;99.90;;;;;;2483853;23;20030;-70
2022/04/30 04:26:23;;;;;;;16.48;13.02;;;8.60;99.90;;;;;;2483831;23;20507;-71
2022/04/30 04:27:23;;;;;;;16.80;13.07;;;8.60;99.90;;;;;;2471114;24;20008;-72
2022/04/30 04:28:24;;;;;;;17.02;13.23;;;8.70;99.90;;;;;;2471449;24;20038;-71
2022/04/30 04:29:24;;;;;;;18.55;13.35;;;8.70;99.90;;;;;;2483773;23;20012;-72
2022/04/30 04:30:29;;;;;;;18.40;13.98;;;8.70;99.90;;;;;;2483539;23;20512;-71
2022/04/30 04:31:30;;;;;;;17.23;13.77;;;8.70;99.90;;;;;;2483960;23;20103;-72
2022/04/30 04:32:30;;;;;;;16.85;13.77;;;8.70;99.90;;;;;;2483641;23;20357;-72
2022/04/30 04:33:31;;;;;;;18.42;13.50;;;8.80;99.90;;;;;;2483650;23;20000;-70
2022/04/30 04:34:32;;;;;;;20.73;13.52;;;8.80;99.90;;;;;;2483434;23;20012;-71
2022/04/30 04:35:32;;;;;;;16.42;12.98;;;8.80;99.90;;;;;;2471025;24;20008;-69
2022/04/30 04:36:33;;;;;;;15.68;12.70;;;8.80;99.90;;;;;;2471221;24;20011;-72
2022/04/30 04:37:33;;;;;;;17.20;13.40;;;8.80;99.90;;;;;;2483277;23;20364;-71
2022/04/30 04:38:34;;;;;;;15.93;12.90;;;8.90;99.90;;;;;;2483675;23;20389;-72
2022/04/30 04:39:35;;;;;;;18.08;13.38;;;8.90;99.90;;;;;;2483693;23;20003;-72
2022/04/30 04:40:35;;;;;;;17.77;13.48;;;8.90;99.90;;;;;;2483611;23;20008;-69
2022/04/30 04:41:36;;;;;;;17.70;13.73;;;8.90;99.90;;;;;;2483830;23;20000;-72
2022/04/30 04:42:38;;;;;;;16.67;12.95;;;9.00;99.90;;;;;;2484019;23;20007;-72
2022/04/30 04:43:38;;;;;;;16.10;13.43;;;9.00;99.90;;;;;;2483968;23;20061;-72
2022/04/30 04:44:39;;;;;;;15.90;12.98;;;9.00;99.90;;;;;;2471287;24;20326;-72
2022/04/30 04:45:40;;;;;;;16.23;13.07;;;9.00;99.90;;;;;;2471392;24;20592;-71
2022/04/30 04:46:41;;;;;;;15.57;12.80;;;9.00;99.90;;;;;;2483582;23;20000;-72
2022/04/30 04:47:49;;;;;;;16.08;12.77;;;9.10;99.90;;;;;;2483476;23;20099;-72
2022/04/30 04:48:49;;;;;;;15.52;12.85;;;9.10;99.90;;;;;;2471392;24;20027;-71
2022/04/30 04:49:50;;;;;;;18.25;13.35;;;9.10;99.90;;;;;;2471350;24;20084;-71
2022/04/30 04:50:51;;;;;;;17.13;13.30;;;9.10;99.90;;;;;;2483664;23;20373;-72
2022/04/30 04:51:52;;;;;;;16.45;13.18;;;9.20;99.90;;;;;;2483783;23;20414;-72
2022/04/30 04:52:53;;;;;;;17.02;13.27;;;9.20;99.90;;;;;;2483861;23;20039;-71
2022/04/30 04:53:54;;;;;;;17.92;13.13;;;9.20;99.90;;;;;;2471308;24;20022;-71
2022/04/30 04:54:55;;;;;;;20.75;12.88;;;9.20;99.90;;;;;;2471344;23;20028;-72
2022/04/30 04:55:56;;;;;;;17.02;12.68;;;9.30;99.90;;;;;;2482815;23;20421;-71
2022/04/30 04:56:57;;;;;;;15.75;12.20;;;9.30;99.90;;;;;;2482422;23;20563;-72
2022/04/30 04:57:58;;;;;;;14.23;11.70;;;9.30;99.90;;;;;;2483524;23;20008;-71
2022/04/30 04:59:00;;;;;;;15.13;12.40;;;9.30;99.90;;;;;;2483641;23;20039;-72
2022/04/30 05:00:01;;;;;;;14.73;11.85;;;9.30;99.90;;;;;;2483537;23;20019;-71
2022/04/30 05:01:01;;;;;;;15.57;12.40;;;9.40;99.90;;;;;;2483756;23;20008;-71
2022/04/30 05:02:03;;;;;;;15.50;12.75;;;9.40;99.90;;;;;;2483744;23;20003;-71
2022/04/30 05:03:04;;;;;;;17.67;12.52;;;9.40;99.90;;;;;;2483866;23;20008;-72
2022/04/30 05:04:04;;;;;;;18.55;13.38;;;9.40;99.90;;;;;;2483694;23;20034;-72
2022/04/30 05:05:06;;;;;;;16.88;13.15;;;9.40;99.90;;;;;;2484030;23;20083;-71
2022/04/30 05:06:06;;;;;;;15.65;12.82;;;9.50;99.90;;;;;;2483686;23;20004;-71
2022/04/30 05:07:07;;;;;;;15.85;12.02;;;9.50;99.90;;;;;;2483430;23;20004;-72
2022/04/30 05:08:07;;;;;;;18.52;12.55;;;9.50;99.90;;;;;;2483860;23;20452;-71
2022/04/30 05:09:08;;;;;;;16.23;12.15;;;9.60;99.90;;;;;;2483973;23;20333;-72
2022/04/30 05:10:09;;;;;;;16.67;12.60;;;9.60;99.90;;;;;;2483447;23;20083;-72
2022/04/30 05:11:10;;;;;;;16.45;12.15;;;9.60;99.90;;;;;;2483760;23;20110;-71
2022/04/30 05:12:11;;;;;;;19.40;13.48;;;9.60;99.90;;;;;;2483690;23;20589;-71
2022/04/30 05:13:11;;;;;;;16.60;12.98;;;9.60;99.90;;;;;;2471247;24;20079;-71
2022/04/30 05:14:12;;;;;;;18.83;13.07;;;9.60;99.90;;;;;;2471446;24;20008;-71
2022/04/30 05:15:13;;;;;;;17.92;12.50;;;9.60;99.90;;;;;;2471384;24;20333;-71
2022/04/30 05:16:13;;;;;;;19.95;12.80;;;9.60;99.90;;;;;;2471153;24;20012;-71
2022/04/30 05:17:14;;;;;;;18.60;13.30;;;9.60;99.90;;;;;;2483091;23;20059;-71
2022/04/30 05:18:15;;;;;;;20.55;13.68;;;9.60;99.90;;;;;;2483556;23;20016;-71
2022/04/30 05:19:16;;;;;;;17.80;13.20;;;9.60;99.90;;;;;;2483583;23;20007;-71
2022/04/30 05:20:16;;;;;;;19.50;13.82;;;9.60;99.90;;;;;;2483509;23;20020;-71
2022/04/30 05:21:17;;;;;;;20.27;13.73;;;9.70;99.90;;;;;;2471233;24;20039;-71
2022/04/30 05:22:18;;;;;;;19.50;13.75;;;9.70;99.90;;;;;;2471272;24;20008;-71
2022/04/30 05:23:18;;;;;;;19.52;13.98;;;9.70;99.90;;;;;;2483057;23;20058;-71
2022/04/30 05:24:19;;;;;;;19.48;12.73;;;9.70;99.90;;;;;;2483700;23;20441;-71
2022/04/30 05:25:19;;;;;;;18.60;13.13;;;9.70;99.90;;;;;;2483775;23;20016;-73
2022/04/30 05:26:20;;;;;;;18.23;13.18;;;9.70;99.90;;;;;;2483315;23;20075;-73
2022/04/30 05:27:21;;;;;;;16.75;12.43;;;9.70;99.90;;;;;;2483000;23;20015;-72
2022/04/30 05:28:22;;;;;;;17.08;12.45;;;9.80;99.90;;;;;;2483611;23;20022;-72
2022/04/30 05:29:22;;;;;;;15.82;11.90;;;9.80;99.90;;;;;;2483597;23;20012;-68
2022/04/30 05:30:23;;;;;;;15.30;12.18;;;9.80;99.90;;;;;;2483236;23;20008;-71
2022/04/30 05:31:24;;;;;;;15.70;12.68;;;9.80;99.90;;;;;;2483544;23;19999;-71
2022/04/30 05:32:25;;;;;;;17.10;12.00;;;9.80;99.90;;;;;;2483311;23;20087;-71
2022/04/30 05:33:26;;;;;;;15.95;12.00;;;9.80;99.90;;;;;;2482568;23;20015;-72
2022/04/30 05:34:27;;;;;;;15.85;12.00;;;9.80;99.90;;;;;;2471176;24;20073;-71
2022/04/30 05:35:28;;;;;;;14.45;11.43;;;9.90;99.90;;;;;;2471426;23;20016;-70
2022/04/30 05:36:29;;;;;;;15.98;11.80;;;9.90;99.90;;;;;;2483121;23;20091;-70
2022/04/30 05:37:29;;;;;;;14.32;11.93;;;9.90;99.90;;;;;;2483133;23;19999;-72
2022/04/30 05:38:30;;;;;;;17.00;12.10;;;9.90;99.90;;;;;;2483401;23;20019;-71
2022/04/30 05:39:30;;;;;;;14.85;11.70;;;10.00;99.90;;;;;;2471132;24;20052;-70